Time;durP1;ratioP1;P1;durP2;ratioP2;P2;SDS_P1;SDS_P2;PMS_P1;PMS_P2;Temp;Humidity;BMP_temperature;BMP_pressure;BME280_temperature;BME280_humidity;BME280_pressure;Samples;Min_cycle;Max_cycle;Signal;HPM_P1;HPM_P2
2022/07/02 00:00:02;;;;;;;5.22;2.15;;;14.40;99.90;;;;;;5039076;28;20041;-75
2022/07/02 00:02:42;;;;;;;4.82;2.00;;;14.40;99.90;;;;;;5040361;28;20346;-75
2022/07/02 00:05:12;;;;;;;5.95;1.75;;;14.40;99.90;;;;;;5040881;28;20013;-75
2022/07/02 00:07:39;;;;;;;3.20;1.70;;;14.40;99.90;;;;;;5044399;28;20354;-74
2022/07/02 00:10:06;;;;;;;4.03;2.05;;;14.30;99.90;;;;;;5038897;28;20021;-74
2022/07/02 00:12:32;;;;;;;4.25;1.90;;;14.30;99.90;;;;;;5043432;28;20036;-75
2022/07/02 00:15:00;;;;;;;4.00;1.88;;;14.30;99.90;;;;;;5026761;28;20045;-74
2022/07/02 00:17:26;;;;;;;2.58;1.20;;;14.30;99.90;;;;;;5038690;28;20033;-75
2022/07/02 00:19:53;;;;;;;4.88;1.63;;;14.20;99.90;;;;;;5040752;28;20635;-74
2022/07/02 00:22:20;;;;;;;4.57;2.38;;;14.10;99.90;;;;;;5041075;28;20035;-74
2022/07/02 00:24:47;;;;;;;3.47;1.55;;;14.10;99.90;;;;;;5028719;28;20029;-75
2022/07/02 00:27:16;;;;;;;3.58;2.08;;;14.00;99.90;;;;;;5038941;28;20048;-74
2022/07/02 00:29:58;;;;;;;5.53;1.90;;;14.00;99.90;;;;;;5057806;28;20029;-75
2022/07/02 00:32:29;;;;;;;3.13;1.33;;;13.90;99.90;;;;;;5040699;28;20025;-75
2022/07/02 00:34:57;;;;;;;2.35;1.20;;;14.00;99.90;;;;;;5040306;28;20040;-75
2022/07/02 00:37:26;;;;;;;4.28;1.40;;;13.90;99.90;;;;;;5043213;28;20045;-75
2022/07/02 00:39:53;;;;;;;4.75;1.98;;;13.90;99.90;;;;;;5039137;28;20015;-75
2022/07/02 00:42:20;;;;;;;2.25;1.00;;;13.90;99.90;;;;;;5041299;28;20045;-75
2022/07/02 00:44:48;;;;;;;4.05;1.58;;;13.90;99.90;;;;;;5041573;28;20028;-75
2022/07/02 00:47:16;;;;;;;2.40;1.23;;;13.90;99.90;;;;;;5041529;28;20029;-75
2022/07/02 00:49:42;;;;;;;4.00;2.05;;;13.90;99.90;;;;;;5039264;28;20030;-75
2022/07/02 00:52:08;;;;;;;4.13;1.77;;;13.80;99.90;;;;;;5043199;28;20036;-75
2022/07/02 00:54:35;;;;;;;3.83;1.50;;;13.80;99.90;;;;;;5030777;28;20048;-75
2022/07/02 00:57:02;;;;;;;4.38;1.90;;;13.80;99.90;;;;;;5040923;28;20024;-75
2022/07/02 00:59:30;;;;;;;4.85;2.25;;;13.80;99.90;;;;;;5039160;28;20037;-75
2022/07/02 01:01:57;;;;;;;5.53;1.90;;;13.80;99.90;;;;;;5021710;28;20033;-75
2022/07/02 01:04:29;;;;;;;4.13;1.67;;;13.80;99.90;;;;;;5025349;28;20061;-75
2022/07/02 01:07:05;;;;;;;2.80;1.48;;;13.80;99.90;;;;;;5040225;28;20048;-75
2022/07/02 01:12:26;;;;;;;2.33;1.30;;;13.70;99.90;;;;;;5055792;28;20044;-75
2022/07/02 01:14:54;;;;;;;2.00;1.20;;;13.60;99.90;;;;;;5041456;28;20022;-76
2022/07/02 01:17:21;;;;;;;3.30;1.40;;;13.60;99.90;;;;;;5019598;28;20037;-75
2022/07/02 01:19:48;;;;;;;4.85;1.25;;;13.60;99.90;;;;;;5035580;28;20021;-75
2022/07/02 01:22:25;;;;;;;3.83;1.50;;;13.60;99.90;;;;;;5022343;28;20014;-75
2022/07/02 01:24:54;;;;;;;4.00;1.45;;;13.50;99.90;;;;;;5041978;28;20080;-75
2022/07/02 01:27:22;;;;;;;2.75;1.40;;;13.50;99.90;;;;;;5040753;28;20032;-75
2022/07/02 01:29:49;;;;;;;3.58;1.70;;;13.50;99.90;;;;;;5042241;28;20036;-75
2022/07/02 01:32:17;;;;;;;3.00;2.00;;;13.50;99.90;;;;;;5044571;28;20047;-75
2022/07/02 01:34:44;;;;;;;3.50;2.08;;;13.50;99.90;;;;;;5026430;28;20024;-75
2022/07/02 01:37:12;;;;;;;4.60;1.73;;;13.50;99.90;;;;;;5039964;28;20033;-74
2022/07/02 01:39:40;;;;;;;4.28;2.00;;;13.40;99.90;;;;;;5040437;28;20029;-75
2022/07/02 01:42:07;;;;;;;3.80;2.20;;;13.50;99.90;;;;;;5045378;28;20049;-75
2022/07/02 01:44:35;;;;;;;6.13;2.40;;;13.40;99.90;;;;;;5046127;28;20503;-75
2022/07/02 01:47:04;;;;;;;4.32;2.17;;;13.40;99.90;;;;;;5040863;28;20021;-74
2022/07/02 01:49:30;;;;;;;3.95;2.60;;;13.40;99.90;;;;;;5045237;28;20025;-74
2022/07/02 01:51:57;;;;;;;4.03;2.67;;;13.40;99.90;;;;;;5044265;28;20032;-74
2022/07/02 01:54:24;;;;;;;4.72;1.85;;;13.40;99.90;;;;;;5015242;28;20040;-75
2022/07/02 01:56:50;;;;;;;5.07;2.50;;;13.30;99.90;;;;;;5043194;28;20720;-74
2022/07/02 01:59:17;;;;;;;3.63;2.58;;;13.30;99.90;;;;;;5041597;28;20029;-74
2022/07/02 02:01:43;;;;;;;3.45;2.40;;;13.30;99.90;;;;;;5045889;28;20469;-75
2022/07/02 02:04:10;;;;;;;4.78;2.63;;;13.30;99.90;;;;;;5032463;28;20024;-74
2022/07/02 02:06:37;;;;;;;4.15;2.45;;;13.20;99.90;;;;;;5034192;28;20036;-74
2022/07/02 02:09:05;;;;;;;4.10;2.38;;;13.20;99.90;;;;;;5037891;28;20029;-75
2022/07/02 02:11:31;;;;;;;3.83;1.90;;;13.20;99.90;;;;;;5041330;28;20068;-75
2022/07/02 02:13:58;;;;;;;4.65;2.00;;;13.20;99.90;;;;;;5029720;28;20044;-74
2022/07/02 02:16:25;;;;;;;2.88;1.90;;;13.20;99.90;;;;;;5050949;28;20038;-75
2022/07/02 02:18:53;;;;;;;4.32;2.30;;;13.20;99.90;;;;;;5050599;28;20044;-75
2022/07/02 02:21:20;;;;;;;4.38;2.70;;;13.10;99.90;;;;;;5044543;28;20033;-75
2022/07/02 02:23:46;;;;;;;4.10;2.53;;;13.10;99.90;;;;;;5044212;28;20013;-74
2022/07/02 02:26:13;;;;;;;3.85;2.65;;;13.10;99.90;;;;;;5045035;28;20318;-74
2022/07/02 02:28:39;;;;;;;4.03;2.28;;;13.10;99.90;;;;;;5043834;28;20020;-75
2022/07/02 02:31:05;;;;;;;4.45;1.50;;;13.10;99.90;;;;;;5027361;28;20032;-74
2022/07/02 02:33:32;;;;;;;4.13;2.08;;;13.00;99.90;;;;;;5042655;28;20024;-75
2022/07/02 02:35:58;;;;;;;4.72;2.30;;;13.00;99.90;;;;;;5046288;28;20027;-75
2022/07/02 02:38:25;;;;;;;3.20;1.95;;;13.00;99.90;;;;;;5029412;28;20088;-75
2022/07/02 02:40:51;;;;;;;3.42;2.75;;;13.00;99.90;;;;;;5040188;28;20056;-74
2022/07/02 02:43:18;;;;;;;6.05;3.35;;;13.00;99.90;;;;;;5045167;28;20488;-74
2022/07/02 02:45:44;;;;;;;3.65;2.15;;;13.00;99.90;;;;;;5045031;28;20036;-74
2022/07/02 02:48:11;;;;;;;5.53;2.55;;;13.00;99.90;;;;;;5047433;28;20127;-74
2022/07/02 02:50:37;;;;;;;4.15;2.40;;;12.90;99.90;;;;;;5010070;28;20484;-74
2022/07/02 02:53:03;;;;;;;4.47;2.90;;;12.90;99.90;;;;;;5042049;28;20025;-74
2022/07/02 02:55:30;;;;;;;6.15;2.88;;;12.90;99.90;;;;;;5041518;28;20095;-74
2022/07/02 02:57:56;;;;;;;4.03;2.63;;;12.90;99.90;;;;;;5029579;28;20021;-75
2022/07/02 03:00:23;;;;;;;3.80;2.50;;;12.90;99.90;;;;;;5040062;28;20036;-75
2022/07/02 03:02:49;;;;;;;4.68;2.05;;;12.80;99.90;;;;;;5024952;28;20036;-74
2022/07/02 03:05:16;;;;;;;3.22;2.03;;;12.80;99.90;;;;;;5042907;28;20024;-74
2022/07/02 03:07:42;;;;;;;6.00;2.00;;;12.80;99.90;;;;;;5039486;28;20036;-75
2022/07/02 03:10:09;;;;;;;5.32;2.67;;;12.80;99.90;;;;;;5007443;28;20522;-75
2022/07/02 03:12:35;;;;;;;3.35;2.30;;;12.70;99.90;;;;;;5026303;28;20399;-75
2022/07/02 03:15:02;;;;;;;3.40;2.28;;;12.70;99.90;;;;;;5028025;28;20028;-75
2022/07/02 03:17:28;;;;;;;3.55;2.40;;;12.80;99.90;;;;;;5040362;28;20032;-75
2022/07/02 03:19:54;;;;;;;6.57;2.75;;;12.70;99.90;;;;;;5022363;28;20029;-75
2022/07/02 03:22:21;;;;;;;4.18;2.45;;;12.80;99.90;;;;;;5041602;28;20032;-74
2022/07/02 03:24:47;;;;;;;5.07;1.92;;;12.80;99.90;;;;;;5037535;28;22718;-75
2022/07/02 03:27:14;;;;;;;4.47;1.83;;;12.70;99.90;;;;;;5025107;28;20061;-75
2022/07/02 03:29:40;;;;;;;2.45;1.30;;;12.70;99.90;;;;;;5041406;28;20483;-75
2022/07/02 03:32:06;;;;;;;3.70;2.40;;;12.70;99.90;;;;;;5007699;28;20037;-75
2022/07/02 03:34:33;;;;;;;4.40;3.00;;;12.70;99.90;;;;;;5025116;28;20032;-75
2022/07/02 03:36:59;;;;;;;3.65;2.47;;;12.80;99.90;;;;;;5042986;28;20013;-75
2022/07/02 03:39:26;;;;;;;4.55;2.78;;;12.80;99.90;;;;;;5025065;28;20044;-75
2022/07/02 03:41:52;;;;;;;6.50;2.50;;;12.80;99.90;;;;;;5039091;28;20041;-75
2022/07/02 03:44:18;;;;;;;4.03;2.58;;;12.80;99.90;;;;;;5025373;28;20056;-74
2022/07/02 03:46:45;;;;;;;4.18;2.92;;;12.90;99.90;;;;;;5029590;28;21180;-77
2022/07/02 03:49:11;;;;;;;3.90;2.60;;;13.00;99.90;;;;;;5028476;28;20380;-77
2022/07/02 03:51:38;;;;;;;4.05;2.53;;;13.10;99.90;;;;;;5024491;28;20033;-74
2022/07/02 03:54:04;;;;;;;3.97;2.55;;;13.20;99.90;;;;;;5043858;28;20021;-74
2022/07/02 03:56:31;;;;;;;6.28;2.45;;;13.40;99.90;;;;;;5027785;28;20041;-75
2022/07/02 03:58:57;;;;;;;4.10;1.92;;;13.50;99.90;;;;;;5047263;28;20031;-75
2022/07/02 04:01:23;;;;;;;4.45;2.28;;;13.50;99.90;;;;;;5041394;28;20499;-75
2022/07/02 04:03:50;;;;;;;3.92;2.08;;;13.50;99.90;;;;;;5042328;28;20052;-75
2022/07/02 04:06:16;;;;;;;4.53;1.77;;;13.50;99.90;;;;;;5042237;28;20480;-74
2022/07/02 04:08:43;;;;;;;2.70;2.03;;;13.40;99.90;;;;;;5042485;28;20029;-75
2022/07/02 04:11:09;;;;;;;6.03;1.90;;;13.40;99.90;;;;;;5024101;28;20013;-75
2022/07/02 04:13:36;;;;;;;3.67;2.17;;;13.40;99.90;;;;;;5045098;28;20043;-75
2022/07/02 04:16:02;;;;;;;2.55;1.40;;;13.40;99.90;;;;;;5041826;28;20029;-75
2022/07/02 04:18:29;;;;;;;5.13;2.13;;;13.40;99.90;;;;;;5041903;28;20026;-75
2022/07/02 04:20:55;;;;;;;4.22;2.03;;;13.40;99.90;;;;;;5040227;28;20048;-75
2022/07/02 04:23:21;;;;;;;3.85;2.50;;;13.40;99.90;;;;;;5041283;28;20024;-75
2022/07/02 04:25:48;;;;;;;3.53;2.80;;;13.40;99.90;;;;;;5040485;28;20013;-75
2022/07/02 04:28:14;;;;;;;5.78;2.60;;;13.40;99.90;;;;;;5043893;28;20044;-75
2022/07/02 04:30:40;;;;;;;4.32;2.63;;;13.50;99.90;;;;;;5041479;28;20029;-75
2022/07/02 04:33:07;;;;;;;5.85;2.33;;;13.60;99.90;;;;;;5025689;28;20048;-75
2022/07/02 04:35:33;;;;;;;2.97;2.42;;;13.70;99.90;;;;;;5041494;28;20024;-75
2022/07/02 04:38:00;;;;;;;2.55;2.20;;;13.80;99.90;;;;;;5043629;28;20032;-75
2022/07/02 04:40:26;;;;;;;4.88;2.30;;;13.90;99.90;;;;;;5040876;28;20055;-74
2022/07/02 04:42:53;;;;;;;3.97;2.10;;;14.00;99.90;;;;;;5043149;28;21290;-75
2022/07/02 04:45:19;;;;;;;5.25;2.22;;;14.10;99.90;;;;;;5010243;28;20395;-75
2022/07/02 04:47:45;;;;;;;2.40;1.85;;;14.30;99.90;;;;;;5038572;28;20033;-75
2022/07/02 04:50:12;;;;;;;3.75;2.47;;;14.50;99.90;;;;;;5040354;28;20037;-75
2022/07/02 04:52:38;;;;;;;4.22;2.38;;;14.70;99.90;;;;;;5040650;28;20356;-75
2022/07/02 04:55:04;;;;;;;6.55;2.80;;;15.10;99.90;;;;;;5042173;28;20025;-75
2022/07/02 04:57:31;;;;;;;5.32;2.00;;;15.40;99.90;;;;;;5041507;28;20021;-74
2022/07/02 04:59:57;;;;;;;2.95;1.80;;;15.60;99.90;;;;;;5040128;28;20457;-75
2022/07/02 05:02:23;;;;;;;2.60;1.23;;;15.70;99.90;;;;;;5059206;28;20032;-74
2022/07/02 05:04:50;;;;;;;4.22;1.73;;;15.70;99.90;;;;;;5010851;28;20468;-75
2022/07/02 05:07:16;;;;;;;2.90;1.70;;;15.70;99.90;;;;;;5044113;28;20017;-74
2022/07/02 05:09:43;;;;;;;4.70;1.73;;;15.70;99.90;;;;;;5044899;28;20021;-75
2022/07/02 05:12:09;;;;;;;3.17;1.55;;;15.60;99.90;;;;;;5044614;28;20025;-75
2022/07/02 05:14:35;;;;;;;3.85;1.92;;;15.50;99.90;;;;;;5026998;28;20033;-74
2022/07/02 05:17:02;;;;;;;4.28;1.95;;;15.50;99.90;;;;;;5042400;28;20029;-74
2022/07/02 05:19:28;;;;;;;4.95;2.17;;;15.40;99.90;;;;;;5043868;28;20407;-75
2022/07/02 05:21:55;;;;;;;4.05;1.98;;;15.40;99.90;;;;;;5045192;28;20041;-75
2022/07/02 05:24:21;;;;;;;3.67;2.17;;;15.50;99.90;;;;;;5045372;28;20350;-74
2022/07/02 05:26:47;;;;;;;4.28;1.85;;;15.80;99.90;;;;;;5030043;28;20035;-75
2022/07/02 05:29:14;;;;;;;4.72;1.75;;;16.20;99.90;;;;;;5011633;28;20040;-74
2022/07/02 05:31:40;;;;;;;3.45;1.92;;;16.70;99.90;;;;;;5028660;28;20032;-74
2022/07/02 05:34:07;;;;;;;5.07;2.03;;;17.10;99.90;;;;;;5043126;28;20021;-74
2022/07/02 05:36:33;;;;;;;5.85;2.40;;;17.30;99.90;;;;;;5047032;28;20032;-74
2022/07/02 05:38:59;;;;;;;2.08;1.40;;;17.30;99.90;;;;;;5046097;28;20025;-75
2022/07/02 05:41:26;;;;;;;2.53;1.35;;;17.30;99.90;;;;;;5046743;28;20051;-74
2022/07/02 05:43:52;;;;;;;4.57;1.63;;;17.30;99.90;;;;;;5044587;28;20024;-75
2022/07/02 05:46:18;;;;;;;3.75;2.00;;;17.30;99.90;;;;;;5010701;28;20460;-75
2022/07/02 05:48:45;;;;;;;3.00;1.85;;;17.60;99.90;;;;;;5030489;28;20028;-75
2022/07/02 05:51:11;;;;;;;4.63;1.67;;;18.00;99.90;;;;;;5048126;28;20017;-74
2022/07/02 05:53:37;;;;;;;5.18;2.05;;;18.40;99.90;;;;;;5044335;28;20460;-74
2022/07/02 05:56:04;;;;;;;2.65;1.20;;;18.80;99.90;;;;;;5047173;28;20597;-74
2022/07/02 05:58:31;;;;;;;3.72;1.50;;;19.00;99.90;;;;;;5028576;28;20503;-74
2022/07/02 06:00:57;;;;;;;4.35;1.35;;;19.00;99.90;;;;;;5046791;28;20043;-74
2022/07/02 06:03:23;;;;;;;2.30;0.80;;;18.90;99.90;;;;;;5047035;28;20481;-74
2022/07/02 06:08:34;;;;;;;3.10;0.90;;;18.90;99.90;;;;;;5048042;28;20025;-75
2022/07/02 06:11:02;;;;;;;4.45;1.00;;;18.90;99.90;;;;;;5038718;28;20029;-74
2022/07/02 06:13:28;;;;;;;2.78;0.75;;;19.00;99.90;;;;;;5041559;28;20052;-74
2022/07/02 06:15:55;;;;;;;3.13;1.15;;;19.00;99.90;;;;;;5025767;28;20040;-74
2022/07/02 06:18:21;;;;;;;2.50;0.70;;;19.00;99.90;;;;;;5047628;28;20025;-74
2022/07/02 06:20:48;;;;;;;4.43;0.80;;;19.10;99.90;;;;;;5042114;28;20129;-74
2022/07/02 06:23:16;;;;;;;2.28;0.75;;;19.10;99.90;;;;;;5008956;28;20018;-74
2022/07/02 06:25:42;;;;;;;1.77;0.60;;;19.30;99.90;;;;;;5029033;28;20013;-74
2022/07/02 06:28:08;;;;;;;1.73;0.50;;;19.50;99.90;;;;;;5046448;28;20582;-75
2022/07/02 06:30:35;;;;;;;2.67;0.55;;;19.60;99.90;;;;;;5025423;28;20036;-74
2022/07/02 06:33:01;;;;;;;3.58;0.60;;;19.60;99.90;;;;;;5041260;28;20024;-75
2022/07/02 06:35:27;;;;;;;1.60;0.50;;;19.60;99.90;;;;;;5042842;28;20356;-74
2022/07/02 06:37:54;;;;;;;3.53;0.52;;;19.50;99.90;;;;;;5028756;28;20029;-74
2022/07/02 06:40:20;;;;;;;1.88;0.40;;;19.40;99.90;;;;;;5039629;28;20465;-75
2022/07/02 06:42:47;;;;;;;1.27;0.32;;;19.40;99.90;;;;;;5029682;28;22818;-75
2022/07/02 06:45:13;;;;;;;1.85;0.50;;;19.50;99.90;;;;;;5044758;28;20025;-75
2022/07/02 06:47:41;;;;;;;2.05;0.50;;;19.60;99.90;;;;;;5045018;28;20024;-75
2022/07/02 06:50:09;;;;;;;1.52;0.30;;;19.70;99.90;;;;;;5044832;28;20017;-75
2022/07/02 06:52:36;;;;;;;1.35;0.30;;;19.90;99.90;;;;;;5047036;28;20021;-75
2022/07/02 06:55:04;;;;;;;1.52;0.38;;;20.00;99.90;;;;;;5042584;28;20483;-75
2022/07/02 06:57:30;;;;;;;0.82;0.30;;;20.10;99.90;;;;;;5045850;28;20370;-76
2022/07/02 06:59:57;;;;;;;1.67;0.30;;;20.10;99.90;;;;;;5041787;28;20025;-75
2022/07/02 07:02:23;;;;;;;0.80;0.20;;;20.10;99.90;;;;;;5026757;28;20033;-75
2022/07/02 07:04:49;;;;;;;0.65;0.22;;;20.10;99.90;;;;;;5030023;28;20040;-75
2022/07/02 07:07:17;;;;;;;2.10;0.30;;;20.20;99.90;;;;;;5049047;28;20021;-75
2022/07/02 07:09:43;;;;;;;1.58;0.30;;;20.30;99.90;;;;;;5042610;28;20037;-75
2022/07/02 07:12:10;;;;;;;1.42;0.30;;;20.30;99.90;;;;;;5059762;28;20333;-75
2022/07/02 07:14:37;;;;;;;1.83;0.40;;;20.40;99.90;;;;;;5045013;28;20053;-75
2022/07/02 07:17:04;;;;;;;0.95;0.40;;;20.50;99.90;;;;;;5056254;28;20333;-75
2022/07/02 07:19:30;;;;;;;2.63;0.40;;;20.70;99.90;;;;;;5041535;28;20020;-76
2022/07/02 07:21:56;;;;;;;0.75;0.25;;;20.70;99.90;;;;;;5008924;28;20038;-76
2022/07/02 07:24:23;;;;;;;2.95;0.50;;;20.90;99.90;;;;;;5042588;28;20032;-75
2022/07/02 07:26:49;;;;;;;3.42;0.30;;;21.10;99.90;;;;;;5041913;28;20040;-75
2022/07/02 07:29:16;;;;;;;1.73;0.30;;;21.30;99.90;;;;;;5043122;28;20021;-75
2022/07/02 07:31:42;;;;;;;1.23;0.20;;;21.40;99.90;;;;;;5041890;28;20040;-75
2022/07/02 07:34:09;;;;;;;1.38;0.30;;;21.60;99.30;;;;;;5025242;28;20027;-76
2022/07/02 07:36:36;;;;;;;1.48;0.28;;;21.70;98.80;;;;;;5044938;28;20040;-76
2022/07/02 07:39:03;;;;;;;0.85;0.20;;;21.90;98.40;;;;;;5041257;28;20523;-75
2022/07/02 07:41:30;;;;;;;0.70;0.20;;;22.10;97.90;;;;;;5026521;28;20372;-75
2022/07/02 07:43:58;;;;;;;1.85;0.30;;;22.30;96.80;;;;;;5007448;28;20040;-75
2022/07/02 07:46:25;;;;;;;1.65;0.40;;;22.40;95.90;;;;;;5044103;28;20033;-76
2022/07/02 07:48:51;;;;;;;2.00;0.20;;;22.60;95.70;;;;;;5024591;28;20018;-76
2022/07/02 07:51:18;;;;;;;0.75;0.20;;;22.70;95.00;;;;;;5027478;28;20035;-77
2022/07/02 07:53:44;;;;;;;1.10;0.30;;;22.80;94.60;;;;;;5026509;28;20048;-75
2022/07/02 07:56:16;;;;;;;1.65;0.30;;;23.00;93.70;;;;;;5044711;28;20514;-75
2022/07/02 07:58:43;;;;;;;3.38;0.30;;;23.10;92.90;;;;;;5045900;28;20036;-75
2022/07/02 08:01:10;;;;;;;1.83;0.30;;;23.10;92.60;;;;;;5041506;28;20036;-75
2022/07/02 08:03:37;;;;;;;1.38;0.22;;;23.30;91.90;;;;;;5042319;28;20618;-75
2022/07/02 08:06:03;;;;;;;1.33;0.30;;;23.40;91.30;;;;;;5014659;28;20020;-75
2022/07/02 08:08:30;;;;;;;0.93;0.22;;;23.50;90.80;;;;;;5056504;28;20017;-75
2022/07/02 08:10:56;;;;;;;0.82;0.25;;;23.50;90.50;;;;;;5040904;28;20028;-75
2022/07/02 08:13:23;;;;;;;1.92;0.60;;;23.60;90.20;;;;;;5043723;28;20035;-74
2022/07/02 08:15:49;;;;;;;2.15;0.40;;;23.70;90.10;;;;;;5026153;28;20032;-74
2022/07/02 08:18:15;;;;;;;1.90;0.32;;;23.70;90.00;;;;;;5015825;28;20021;-73
2022/07/02 08:20:42;;;;;;;2.13;0.30;;;23.90;89.60;;;;;;5029386;28;20033;-73
2022/07/02 08:23:08;;;;;;;1.20;0.30;;;24.00;88.70;;;;;;5034447;28;20024;-75
2022/07/02 08:25:35;;;;;;;1.58;0.30;;;24.10;86.60;;;;;;5036141;28;20032;-75
2022/07/02 08:28:01;;;;;;;2.33;0.20;;;24.20;87.00;;;;;;5040767;28;20597;-76
2022/07/02 08:30:28;;;;;;;0.43;0.20;;;24.20;87.10;;;;;;5037148;28;20405;-76
2022/07/02 08:32:54;;;;;;;1.05;0.32;;;24.50;87.00;;;;;;5038110;28;20040;-76
2022/07/02 08:35:21;;;;;;;2.17;0.68;;;24.60;85.40;;;;;;5022867;28;20037;-76
2022/07/02 08:37:47;;;;;;;2.17;0.30;;;24.60;85.30;;;;;;5039768;28;20048;-76
2022/07/02 08:40:13;;;;;;;3.47;0.50;;;24.80;85.90;;;;;;5038766;28;20029;-76
2022/07/02 08:42:42;;;;;;;1.00;0.40;;;24.90;84.50;;;;;;5027523;28;20045;-76
2022/07/02 08:45:11;;;;;;;2.40;0.50;;;25.00;83.60;;;;;;5044883;28;20021;-75
2022/07/02 08:47:40;;;;;;;0.50;0.22;;;25.00;82.40;;;;;;5029541;28;20013;-75
2022/07/02 08:50:09;;;;;;;1.15;0.25;;;25.00;82.40;;;;;;5039466;28;20017;-76
2022/07/02 08:52:38;;;;;;;0.40;0.20;;;25.00;82.30;;;;;;5045354;28;20036;-76
2022/07/02 08:55:05;;;;;;;1.10;0.20;;;25.20;82.20;;;;;;5024895;28;20373;-74
2022/07/02 08:57:33;;;;;;;1.65;0.30;;;25.30;81.70;;;;;;5041728;28;20033;-73
2022/07/02 09:00:00;;;;;;;2.05;0.30;;;25.50;81.30;;;;;;5040280;28;20017;-73
2022/07/02 09:02:27;;;;;;;1.50;0.30;;;25.60;80.40;;;;;;5044066;28;20048;-74
2022/07/02 09:04:56;;;;;;;3.88;0.30;;;25.60;79.30;;;;;;5043444;28;20029;-76
2022/07/02 09:07:22;;;;;;;1.30;0.30;;;25.70;78.70;;;;;;5043921;28;20044;-75
2022/07/02 09:09:50;;;;;;;1.83;0.38;;;25.70;78.60;;;;;;5040838;28;20029;-75
2022/07/02 09:12:17;;;;;;;1.88;0.30;;;25.80;79.00;;;;;;5044490;28;20028;-74
2022/07/02 09:14:44;;;;;;;1.38;0.40;;;26.00;78.20;;;;;;5009709;28;20033;-75
2022/07/02 09:17:12;;;;;;;1.85;0.30;;;26.10;77.40;;;;;;5044239;28;20031;-73
2022/07/02 09:19:39;;;;;;;2.00;0.70;;;26.10;76.00;;;;;;5040798;28;20025;-74
2022/07/02 09:22:07;;;;;;;1.75;0.50;;;26.20;76.10;;;;;;5043687;28;20025;-75
2022/07/02 09:24:35;;;;;;;1.45;0.40;;;26.30;76.20;;;;;;5044416;28;20440;-75
2022/07/02 09:27:07;;;;;;;1.55;0.45;;;26.50;75.80;;;;;;5025154;28;20021;-76
2022/07/02 09:29:48;;;;;;;0.80;0.20;;;26.40;74.20;;;;;;5041351;28;20017;-76
2022/07/02 09:32:15;;;;;;;1.77;0.30;;;26.30;74.30;;;;;;5042875;28;20033;-76
2022/07/02 09:34:47;;;;;;;1.90;0.40;;;26.20;74.20;;;;;;5043417;28;20028;-76
2022/07/02 09:37:14;;;;;;;;;;;26.00;72.90;;;;;;5042071;28;20013;-77
2022/07/02 09:39:43;;;;;;;2.50;0.40;;;25.90;73.70;;;;;;5041488;28;19912;-77
2022/07/02 09:42:11;;;;;;;2.45;0.35;;;26.00;73.90;;;;;;5042916;28;20056;-74
2022/07/02 09:44:47;;;;;;;0.60;0.20;;;26.20;73.80;;;;;;5043314;28;20025;-78
2022/07/02 09:47:14;;;;;;;1.58;0.30;;;26.50;73.30;;;;;;5027211;28;20034;-78
2022/07/02 09:49:48;;;;;;;1.58;0.35;;;26.70;72.90;;;;;;5039500;28;20033;-79
2022/07/02 09:52:16;;;;;;;4.20;0.40;;;26.90;72.60;;;;;;5045393;28;20649;-78
2022/07/02 09:54:43;;;;;;;1.15;0.30;;;27.00;72.30;;;;;;5043814;28;20491;-78
2022/07/02 09:57:11;;;;;;;2.42;0.40;;;27.20;71.10;;;;;;5025382;28;20040;-78
2022/07/02 09:59:39;;;;;;;1.65;0.30;;;27.30;70.50;;;;;;5042440;28;20033;-78
2022/07/02 10:02:18;;;;;;;0.70;0.20;;;27.40;71.70;;;;;;5058882;28;20024;-78
2022/07/02 10:04:44;;;;;;;2.03;0.45;;;27.50;71.30;;;;;;5042671;28;20028;-78
2022/07/02 10:07:11;;;;;;;2.60;0.50;;;27.70;71.00;;;;;;5059236;28;20036;-78
2022/07/02 10:09:39;;;;;;;0.93;0.20;;;27.90;69.50;;;;;;5041330;28;20526;-78
2022/07/02 10:12:08;;;;;;;1.50;0.52;;;28.00;69.30;;;;;;5042302;28;20040;-77
2022/07/02 10:14:38;;;;;;;2.67;0.30;;;28.10;67.40;;;;;;5046099;28;20070;-77
2022/07/02 10:17:08;;;;;;;1.80;0.30;;;28.10;68.10;;;;;;5041335;28;20025;-74
2022/07/02 10:19:35;;;;;;;2.50;0.30;;;28.20;68.30;;;;;;5038839;28;20025;-73
2022/07/02 10:22:03;;;;;;;0.98;0.20;;;28.40;67.10;;;;;;5041456;28;20472;-74
2022/07/02 10:24:30;;;;;;;1.85;0.30;;;28.40;66.80;;;;;;5010791;28;20476;-77
2022/07/02 10:26:59;;;;;;;2.15;0.52;;;28.50;66.20;;;;;;5041796;28;20022;-76
2022/07/02 10:29:27;;;;;;;3.90;0.60;;;28.30;65.40;;;;;;5041067;28;20040;-77
2022/07/02 10:32:11;;;;;;;1.20;0.30;;;28.20;65.40;;;;;;5041539;28;20028;-77
2022/07/02 10:34:55;;;;;;;1.38;0.40;;;28.00;65.70;;;;;;5043986;28;20040;-77
2022/07/02 10:37:22;;;;;;;0.80;0.20;;;27.70;64.70;;;;;;5042787;28;20029;-77
2022/07/02 10:39:48;;;;;;;2.50;0.32;;;27.50;64.70;;;;;;5040012;28;20028;-79
2022/07/02 10:42:15;;;;;;;1.25;0.25;;;27.30;65.40;;;;;;5035425;28;20048;-79
2022/07/02 10:44:42;;;;;;;0.88;0.28;;;27.20;65.90;;;;;;5046359;28;20357;-80
2022/07/02 10:47:18;;;;;;;1.20;0.20;;;27.50;66.20;;;;;;5041511;28;20028;-78
2022/07/02 10:49:55;;;;;;;0.93;0.20;;;27.80;65.00;;;;;;5037720;28;20028;-79
2022/07/02 10:52:46;;;;;;;1.95;0.30;;;28.10;64.50;;;;;;5042771;28;20040;-78
2022/07/02 10:55:27;;;;;;;0.75;0.20;;;28.70;63.70;;;;;;5026537;28;20041;-78
2022/07/02 10:58:01;;;;;;;3.35;0.40;;;28.80;62.70;;;;;;5045196;28;20476;-79
2022/07/02 11:00:28;;;;;;;1.42;0.20;;;28.70;62.30;;;;;;5041109;28;20048;-80
2022/07/02 11:02:56;;;;;;;1.33;0.28;;;28.90;62.40;;;;;;5046255;28;20033;-80
2022/07/02 11:05:23;;;;;;;1.42;0.30;;;29.30;62.70;;;;;;5044215;28;20040;-80
2022/07/02 11:07:49;;;;;;;1.75;0.30;;;29.90;61.10;;;;;;5040902;28;20043;-80
2022/07/02 11:10:16;;;;;;;1.10;0.30;;;30.30;59.90;;;;;;5040328;28;20570;-80
2022/07/02 11:12:54;;;;;;;0.85;0.10;;;30.60;58.80;;;;;;5043522;28;20040;-80
2022/07/02 11:15:32;;;;;;;2.25;0.30;;;31.10;57.90;;;;;;5042774;28;20032;-81
2022/07/02 11:18:03;;;;;;;1.80;0.30;;;31.60;56.40;;;;;;5042756;28;20024;-82
2022/07/02 11:20:32;;;;;;;1.90;0.23;;;31.70;54.90;;;;;;5039674;28;20345;-81
2022/07/02 11:22:58;;;;;;;0.60;0.20;;;31.20;53.70;;;;;;5043196;28;20039;-81
2022/07/02 11:25:28;;;;;;;2.50;0.20;;;30.50;54.70;;;;;;5028773;28;20025;-81
2022/07/02 11:28:02;;;;;;;1.52;0.20;;;30.00;54.70;;;;;;5043899;28;20029;-80
2022/07/02 11:30:31;;;;;;;1.65;0.28;;;29.60;55.80;;;;;;5040894;28;20020;-81
2022/07/02 11:32:57;;;;;;;3.45;0.30;;;29.30;55.90;;;;;;5041528;28;20045;-81
2022/07/02 11:35:24;;;;;;;1.05;0.30;;;29.10;56.80;;;;;;5043331;28;20033;-81
2022/07/02 11:38:00;;;;;;;1.58;0.40;;;29.00;57.10;;;;;;5024372;28;20469;-80
2022/07/02 11:40:26;;;;;;;0.80;0.30;;;28.90;57.30;;;;;;5039360;28;20386;-80
2022/07/02 11:42:53;;;;;;;1.23;0.30;;;28.70;57.70;;;;;;5042474;28;20036;-81
2022/07/02 11:45:20;;;;;;;1.25;0.30;;;28.80;58.10;;;;;;5008004;28;20033;-81
2022/07/02 11:47:49;;;;;;;0.82;0.22;;;29.20;58.00;;;;;;5042557;28;20334;-81
2022/07/02 11:50:27;;;;;;;1.00;0.13;;;29.60;57.60;;;;;;5039503;28;20040;-80
2022/07/02 11:52:53;;;;;;;1.40;0.22;;;29.60;57.00;;;;;;5040877;28;20044;-81
2022/07/02 11:55:20;;;;;;;1.60;0.30;;;29.90;57.10;;;;;;5040275;28;20037;-81
2022/07/02 11:57:50;;;;;;;0.90;0.20;;;30.30;55.70;;;;;;5041286;28;20048;-81
2022/07/02 12:00:18;;;;;;;1.17;0.30;;;30.30;55.30;;;;;;5038992;28;20044;-81
2022/07/02 12:02:44;;;;;;;1.02;0.20;;;30.10;55.70;;;;;;5038988;28;20037;-81
2022/07/02 12:05:19;;;;;;;1.40;0.40;;;29.70;55.70;;;;;;5041467;28;20041;-80
2022/07/02 12:07:46;;;;;;;1.35;0.30;;;29.30;55.70;;;;;;5041626;28;20673;-82
2022/07/02 12:10:14;;;;;;;1.48;0.30;;;28.80;56.70;;;;;;5021733;28;20036;-80
2022/07/02 12:12:40;;;;;;;10.60;8.73;;;28.70;57.50;;;;;;5039942;28;20018;-80
2022/07/02 12:15:08;;;;;;;2.83;1.50;;;28.70;57.20;;;;;;5041553;28;20025;-83
2022/07/02 12:17:35;;;;;;;2.20;0.73;;;29.00;57.30;;;;;;5039127;28;20038;-81
2022/07/02 12:20:06;;;;;;;1.23;0.40;;;29.90;56.80;;;;;;5005358;28;20037;-84
2022/07/02 12:22:36;;;;;;;2.15;0.35;;;31.10;55.30;;;;;;5041405;28;20025;-82
2022/07/02 12:25:05;;;;;;;1.35;0.40;;;32.00;54.10;;;;;;5042999;28;20491;-82
2022/07/02 12:27:36;;;;;;;0.77;0.20;;;32.10;52.90;;;;;;5025115;28;20543;-80
2022/07/02 12:30:13;;;;;;;1.27;0.25;;;31.80;52.80;;;;;;5020556;28;20052;-81
2022/07/02 12:32:40;;;;;;;2.95;0.35;;;31.20;53.50;;;;;;5057157;28;20029;-81
2022/07/02 12:35:10;;;;;;;4.97;0.60;;;31.00;53.80;;;;;;5022074;28;20043;-83
2022/07/02 12:37:39;;;;;;;1.17;0.40;;;31.70;53.40;;;;;;5041371;28;21063;-85
2022/07/02 12:40:17;;;;;;;1.42;0.60;;;32.60;52.00;;;;;;5035393;28;21644;-83
2022/07/02 12:42:54;;;;;;;1.63;0.32;;;32.70;52.20;;;;;;5040893;28;20037;-82
2022/07/02 12:45:33;;;;;;;1.10;0.47;;;32.30;52.80;;;;;;5039515;28;20385;-84
2022/07/02 12:48:00;;;;;;;3.40;0.60;;;32.40;52.30;;;;;;5041208;28;20032;-84
2022/07/02 12:50:31;;;;;;;2.97;0.50;;;33.50;51.70;;;;;;5036729;28;20034;-84
2022/07/02 12:53:03;;;;;;;2.00;1.00;;;34.70;49.90;;;;;;5043671;28;20025;-84
2022/07/02 12:55:42;;;;;;;1.05;0.20;;;34.90;48.40;;;;;;5046075;28;20025;-83